Time;durP1;ratioP1;P1;durP2;ratioP2;P2;SDS_P1;SDS_P2;PMS_P1;PMS_P2;Temp;Humidity;BMP_temperature;BMP_pressure;BME280_temperature;BME280_humidity;BME280_pressure;Samples;Min_cycle;Max_cycle;Signal;HPM_P1;HPM_P2
2022/04/13 00:01:41;;;;;;;11.45;6.63;;;11.20;94.10;;;;;;4918014;29;20603;-82
2022/04/13 00:04:07;;;;;;;11.20;7.00;;;11.20;94.30;;;;;;4917912;29;20253;-81
2022/04/13 00:06:38;;;;;;;11.07;7.18;;;11.20;94.30;;;;;;4917726;29;20182;-79
2022/04/13 00:09:06;;;;;;;12.23;7.38;;;11.20;94.80;;;;;;4917466;29;20187;-81
2022/04/13 00:11:32;;;;;;;11.55;7.78;;;11.20;94.60;;;;;;4916518;29;20178;-80
2022/04/13 00:13:57;;;;;;;10.40;7.43;;;11.10;94.60;;;;;;4917842;29;20646;-80
2022/04/13 00:16:23;;;;;;;15.48;6.82;;;11.10;94.80;;;;;;4917787;29;20211;-81
2022/04/13 00:18:49;;;;;;;14.50;8.50;;;11.10;94.90;;;;;;4917763;29;20216;-81
2022/04/13 00:21:14;;;;;;;12.48;7.55;;;11.10;94.90;;;;;;4917608;29;20187;-78
2022/04/13 00:23:40;;;;;;;12.95;8.20;;;11.00;95.20;;;;;;4917374;29;20174;-81
2022/04/13 00:26:06;;;;;;;13.23;8.18;;;11.00;95.30;;;;;;4917804;29;20211;-80
2022/04/13 00:28:31;;;;;;;14.63;9.13;;;11.00;95.50;;;;;;4916295;29;20186;-81
2022/04/13 00:30:57;;;;;;;14.55;9.07;;;11.00;95.60;;;;;;4917833;29;20174;-81
2022/04/13 00:33:23;;;;;;;14.88;9.32;;;10.90;95.80;;;;;;4917578;29;20520;-82
2022/04/13 00:35:49;;;;;;;18.30;10.00;;;10.80;96.00;;;;;;4917616;29;20175;-81
2022/04/13 00:38:14;;;;;;;15.55;9.52;;;10.80;96.10;;;;;;4917479;29;20226;-82
2022/04/13 00:40:40;;;;;;;13.70;8.18;;;10.70;96.70;;;;;;4917594;29;20183;-82
2022/04/13 00:43:06;;;;;;;13.13;7.13;;;10.60;96.70;;;;;;4917463;29;20611;-83
2022/04/13 00:45:33;;;;;;;16.60;7.82;;;10.60;96.90;;;;;;4917607;29;20163;-82
2022/04/13 00:48:01;;;;;;;12.15;7.15;;;10.50;97.30;;;;;;4917543;29;20167;-82
2022/04/13 00:50:27;;;;;;;13.73;8.10;;;10.40;97.50;;;;;;4916406;29;20517;-81
2022/04/13 00:52:54;;;;;;;14.77;8.30;;;10.40;97.70;;;;;;4918599;29;20179;-82
2022/04/13 00:55:24;;;;;;;16.42;8.05;;;10.40;97.90;;;;;;4920579;29;20206;-83
2022/04/13 00:57:51;;;;;;;15.27;7.88;;;10.40;98.00;;;;;;4920821;29;20178;-82
2022/04/13 01:00:19;;;;;;;12.68;8.50;;;10.40;98.40;;;;;;4920962;29;20209;-82
2022/04/13 01:02:46;;;;;;;11.45;7.40;;;10.30;98.40;;;;;;4919173;29;20230;-81
2022/04/13 01:05:12;;;;;;;13.83;7.80;;;10.30;98.70;;;;;;4919552;29;20282;-83
2022/04/13 01:07:39;;;;;;;13.23;8.18;;;10.30;98.90;;;;;;4920673;29;20206;-84
2022/04/13 01:10:07;;;;;;;11.65;7.63;;;10.20;99.00;;;;;;4919307;29;20202;-83
2022/04/13 01:12:36;;;;;;;16.58;8.50;;;10.30;99.40;;;;;;4920774;29;20179;-82
2022/04/13 01:15:04;;;;;;;13.02;8.45;;;10.20;99.40;;;;;;4920755;29;20214;-84
2022/04/13 01:17:30;;;;;;;12.37;8.60;;;10.20;99.80;;;;;;4919087;29;20183;-84
2022/04/13 01:19:56;;;;;;;15.63;8.63;;;10.10;99.90;;;;;;4920647;29;20182;-84
2022/04/13 01:22:28;;;;;;;16.93;8.87;;;10.10;99.90;;;;;;4919338;29;20174;-85
2022/04/13 01:24:53;;;;;;;11.85;8.40;;;10.10;99.90;;;;;;4919237;29;20265;-84
2022/04/13 01:27:19;;;;;;;12.00;8.27;;;10.10;99.90;;;;;;4920565;29;20669;-84
2022/04/13 01:29:46;;;;;;;15.45;8.93;;;10.10;99.90;;;;;;4920338;29;20206;-84
2022/04/13 01:32:12;;;;;;;14.50;8.65;;;10.10;99.90;;;;;;4919309;29;20187;-82
2022/04/13 01:34:45;;;;;;;14.48;8.15;;;10.10;99.90;;;;;;4920561;29;20199;-84
2022/04/13 01:37:11;;;;;;;12.23;8.35;;;10.10;99.90;;;;;;4920388;29;20503;-84
2022/04/13 01:39:36;;;;;;;14.80;8.80;;;10.10;99.90;;;;;;4919905;29;20189;-83
2022/04/13 01:42:02;;;;;;;14.02;9.05;;;10.00;99.90;;;;;;4920289;29;20257;-85
2022/04/13 01:44:28;;;;;;;14.27;9.13;;;10.00;99.90;;;;;;4920172;29;20207;-85
2022/04/13 01:46:53;;;;;;;14.35;8.88;;;10.00;99.90;;;;;;4918782;29;20186;-84
2022/04/13 01:49:19;;;;;;;14.80;8.73;;;10.00;99.90;;;;;;4920099;29;20624;-82
2022/04/13 01:51:44;;;;;;;13.65;8.85;;;10.00;99.90;;;;;;4918780;29;20191;-84
2022/04/13 01:54:10;;;;;;;13.32;8.50;;;10.00;99.90;;;;;;4919938;29;20254;-84
2022/04/13 01:56:36;;;;;;;17.70;9.27;;;10.00;99.90;;;;;;4920059;29;20179;-84
2022/04/13 01:59:02;;;;;;;13.80;9.15;;;10.00;99.90;;;;;;4918598;29;20207;-83
2022/04/13 02:01:27;;;;;;;13.88;8.93;;;9.90;99.90;;;;;;4919671;29;20210;-85
2022/04/13 02:03:53;;;;;;;13.13;8.60;;;10.00;99.90;;;;;;4917556;29;20286;-82
2022/04/13 02:06:19;;;;;;;13.93;8.65;;;9.90;99.90;;;;;;4918394;29;20249;-81
2022/04/13 02:08:45;;;;;;;14.00;9.27;;;9.90;99.90;;;;;;4919818;29;20187;-84
2022/04/13 02:11:10;;;;;;;15.23;9.20;;;9.90;99.90;;;;;;4919374;29;20221;-82
2022/04/13 02:13:37;;;;;;;12.63;8.52;;;9.90;99.90;;;;;;4918263;29;20182;-84
2022/04/13 02:16:02;;;;;;;14.70;8.88;;;9.80;99.90;;;;;;4919476;29;20171;-85
2022/04/13 02:18:28;;;;;;;13.60;8.95;;;9.80;99.90;;;;;;4919560;29;20179;-82
2022/04/13 02:20:54;;;;;;;16.20;8.90;;;9.80;99.90;;;;;;4919558;29;20542;-83
2022/04/13 02:23:19;;;;;;;12.90;8.80;;;9.70;99.90;;;;;;4919578;29;20507;-83
2022/04/13 02:25:45;;;;;;;15.27;9.00;;;9.70;99.90;;;;;;4919240;29;20624;-84
2022/04/13 02:28:10;;;;;;;13.68;8.40;;;9.60;99.90;;;;;;4918031;29;20618;-84
2022/04/13 02:30:36;;;;;;;12.40;8.40;;;9.60;99.90;;;;;;4918072;29;20194;-85
2022/04/13 02:33:02;;;;;;;18.27;8.63;;;9.50;99.90;;;;;;4917978;29;20281;-82
2022/04/13 02:35:27;;;;;;;14.30;8.93;;;9.40;99.90;;;;;;4917867;29;20286;-83
2022/04/13 02:37:53;;;;;;;12.38;8.55;;;9.40;99.90;;;;;;4917784;29;20546;-82
2022/04/13 02:40:19;;;;;;;14.30;9.37;;;9.40;99.90;;;;;;5315525;23;20333;-82
2022/04/13 02:42:45;;;;;;;11.97;8.63;;;9.30;99.90;;;;;;4938017;29;20257;-82
2022/04/13 02:45:11;;;;;;;13.70;8.67;;;9.30;99.90;;;;;;4936661;29;20276;-82
2022/04/13 02:47:37;;;;;;;12.67;8.73;;;9.20;99.90;;;;;;4936576;29;20190;-82
2022/04/13 02:50:03;;;;;;;13.37;8.73;;;9.20;99.90;;;;;;4937994;29;20241;-82
2022/04/13 02:52:29;;;;;;;13.30;8.50;;;9.20;99.90;;;;;;4936498;29;20221;-82
2022/04/13 02:54:56;;;;;;;13.23;8.63;;;9.10;99.90;;;;;;4936263;29;20233;-81
2022/04/13 02:57:22;;;;;;;14.53;7.97;;;9.10;99.90;;;;;;4937765;29;20178;-82
2022/04/13 02:59:49;;;;;;;10.83;7.73;;;9.00;99.90;;;;;;4936400;29;20192;-82
2022/04/13 03:02:15;;;;;;;10.27;8.03;;;9.00;99.90;;;;;;4936313;29;20284;-82
2022/04/13 03:04:48;;;;;;;10.77;7.80;;;8.90;99.90;;;;;;4936527;29;20205;-82
2022/04/13 03:07:16;;;;;;;13.87;8.60;;;8.90;99.90;;;;;;4937770;29;20245;-83
2022/04/13 03:09:42;;;;;;;10.97;7.80;;;8.80;99.90;;;;;;4953273;29;20537;-82
2022/04/13 03:12:10;;;;;;;11.00;7.77;;;8.80;99.90;;;;;;4955251;29;20185;-82
2022/04/13 03:14:38;;;;;;;11.23;7.13;;;8.70;99.90;;;;;;4955076;28;20672;-82
2022/04/13 03:17:03;;;;;;;11.67;8.30;;;8.70;99.90;;;;;;4955429;29;20188;-82
2022/04/13 03:19:29;;;;;;;12.07;7.30;;;8.70;99.90;;;;;;4956558;29;20214;-82
2022/04/13 03:21:55;;;;;;;13.20;8.07;;;8.70;99.90;;;;;;4955330;29;20181;-82
2022/04/13 03:24:22;;;;;;;11.93;7.43;;;8.60;99.90;;;;;;4956309;29;20623;-82
2022/04/13 03:26:48;;;;;;;14.13;8.20;;;8.70;99.90;;;;;;4956468;28;20282;-82
2022/04/13 03:29:14;;;;;;;12.17;7.80;;;8.60;99.90;;;;;;4955221;29;20234;-82
2022/04/13 03:31:40;;;;;;;12.63;8.03;;;8.50;99.90;;;;;;4955110;29;20173;-82
2022/04/13 03:34:05;;;;;;;12.43;7.80;;;8.50;99.90;;;;;;4955265;29;20241;-82
2022/04/13 03:36:32;;;;;;;12.07;7.87;;;8.50;99.90;;;;;;4955176;29;20181;-83
2022/04/13 03:38:58;;;;;;;9.77;7.73;;;8.40;99.90;;;;;;4956239;28;20272;-83
2022/04/13 03:41:23;;;;;;;13.47;7.87;;;8.40;99.90;;;;;;4954530;29;20634;-82
2022/04/13 03:43:49;;;;;;;11.30;7.93;;;8.30;99.90;;;;;;4956726;28;20229;-85
2022/04/13 03:46:15;;;;;;;13.20;7.80;;;8.30;99.90;;;;;;4956333;29;20236;-82
2022/04/13 03:48:40;;;;;;;14.27;7.77;;;8.30;99.90;;;;;;4956351;29;20489;-84
2022/04/13 03:51:06;;;;;;;10.60;7.33;;;8.20;99.90;;;;;;4955086;29;20181;-82
2022/04/13 03:53:32;;;;;;;11.20;8.30;;;8.20;99.90;;;;;;4956253;29;20166;-82
2022/04/13 03:55:57;;;;;;;10.97;7.73;;;8.20;99.90;;;;;;4956189;29;20224;-81
2022/04/13 03:58:23;;;;;;;12.53;7.93;;;8.20;99.90;;;;;;4956272;29;20181;-82
2022/04/13 04:00:49;;;;;;;12.50;8.60;;;8.20;99.90;;;;;;4954991;29;20297;-82
2022/04/13 04:03:15;;;;;;;12.47;8.20;;;8.10;99.90;;;;;;4954803;29;20272;-82
2022/04/13 04:05:41;;;;;;;13.73;8.13;;;8.10;99.90;;;;;;4954949;29;20244;-81
2022/04/13 04:08:07;;;;;;;10.97;7.43;;;8.10;99.90;;;;;;4954770;29;20578;-82
2022/04/13 04:10:32;;;;;;;10.77;8.03;;;8.10;99.90;;;;;;4956030;29;20177;-85
2022/04/13 04:12:58;;;;;;;13.43;8.07;;;8.10;99.90;;;;;;4955820;29;20189;-84
2022/04/13 04:15:24;;;;;;;12.30;8.37;;;8.10;99.90;;;;;;4956189;29;20208;-83
2022/04/13 04:17:50;;;;;;;13.93;9.00;;;8.10;99.90;;;;;;4954720;29;20613;-85
2022/04/13 04:20:16;;;;;;;12.03;7.90;;;8.10;99.90;;;;;;4955972;29;20216;-84
2022/04/13 04:22:41;;;;;;;10.43;7.90;;;8.00;99.90;;;;;;4955958;29;20495;-82
2022/04/13 04:25:08;;;;;;;13.10;9.13;;;8.00;99.90;;;;;;4955640;29;20344;-82
2022/04/13 04:27:34;;;;;;;13.00;9.07;;;8.00;99.90;;;;;;4957836;28;20245;-81
2022/04/13 04:30:00;;;;;;;12.27;9.00;;;7.90;99.90;;;;;;4958419;29;20193;-81
2022/04/13 04:32:26;;;;;;;13.17;8.20;;;7.90;99.90;;;;;;4959576;29;20185;-81
2022/04/13 04:34:52;;;;;;;11.57;7.87;;;7.80;99.90;;;;;;4959449;29;20235;-81
2022/04/13 04:37:18;;;;;;;13.17;8.27;;;7.90;99.90;;;;;;4959500;29;20205;-82
2022/04/13 04:39:44;;;;;;;12.03;7.80;;;7.80;99.90;;;;;;4958769;29;20663;-81
2022/04/13 04:42:10;;;;;;;13.13;8.43;;;7.80;99.90;;;;;;4959427;29;20189;-81
2022/04/13 04:44:36;;;;;;;11.10;8.50;;;7.80;99.90;;;;;;4959525;28;20345;-82
2022/04/13 04:47:02;;;;;;;11.47;8.13;;;7.90;99.90;;;;;;4959333;28;20247;-81
2022/04/13 04:49:28;;;;;;;12.43;8.53;;;7.90;99.90;;;;;;4959310;28;20636;-84
2022/04/13 04:51:54;;;;;;;10.60;8.10;;;7.90;99.90;;;;;;4957752;29;20209;-82
2022/04/13 04:54:20;;;;;;;14.33;8.07;;;7.90;99.90;;;;;;4957771;29;20263;-82
2022/04/13 04:56:46;;;;;;;15.97;8.97;;;7.80;99.90;;;;;;4958919;28;20223;-82
2022/04/13 04:59:12;;;;;;;13.17;8.80;;;7.80;99.90;;;;;;4959087;28;20667;-82
2022/04/13 05:01:37;;;;;;;12.97;9.50;;;7.80;99.90;;;;;;4957760;29;20276;-81
2022/04/13 05:04:03;;;;;;;12.23;9.00;;;7.80;99.90;;;;;;4959172;29;20173;-82
2022/04/13 05:06:29;;;;;;;12.57;8.73;;;7.80;99.90;;;;;;4957602;29;20181;-82
2022/04/13 05:08:55;;;;;;;15.37;9.70;;;7.80;99.90;;;;;;4957347;29;20189;-82
2022/04/13 05:11:22;;;;;;;17.20;10.10;;;7.90;99.90;;;;;;4958502;28;20273;-82
2022/04/13 05:13:48;;;;;;;14.13;8.57;;;7.90;99.90;;;;;;4957515;29;20280;-82
2022/04/13 05:16:15;;;;;;;13.13;8.60;;;7.90;99.90;;;;;;4958763;29;20260;-82
2022/04/13 05:18:42;;;;;;;11.50;8.67;;;7.80;99.90;;;;;;4958694;28;20519;-82
2022/04/13 05:21:08;;;;;;;11.33;8.20;;;7.90;99.90;;;;;;4957251;29;20568;-82
2022/04/13 05:23:35;;;;;;;12.83;8.87;;;7.90;99.90;;;;;;4957342;29;20185;-81
2022/04/13 05:26:00;;;;;;;12.63;8.40;;;8.00;99.90;;;;;;4958275;28;20169;-81
2022/04/13 05:28:26;;;;;;;13.90;8.30;;;7.90;99.90;;;;;;4958367;29;20188;-82
2022/04/13 05:30:52;;;;;;;14.63;8.10;;;7.90;99.90;;;;;;4957211;29;20584;-81
2022/04/13 05:33:18;;;;;;;12.43;8.20;;;7.90;99.90;;;;;;4957227;29;20184;-82
2022/04/13 05:35:45;;;;;;;14.20;8.30;;;8.00;99.90;;;;;;4955164;29;20241;-81
2022/04/13 05:38:11;;;;;;;12.17;8.73;;;8.00;99.90;;;;;;4957933;28;20229;-82
2022/04/13 05:40:36;;;;;;;15.60;8.83;;;8.10;99.90;;;;;;4957851;28;20236;-83
2022/04/13 05:43:03;;;;;;;12.13;8.70;;;8.10;99.90;;;;;;4958259;29;20478;-83
2022/04/13 05:45:29;;;;;;;13.07;9.20;;;8.10;99.90;;;;;;4956656;29;20185;-82
2022/04/13 05:47:54;;;;;;;12.87;8.30;;;8.10;99.90;;;;;;4956399;29;20232;-81
2022/04/13 05:50:20;;;;;;;13.63;8.63;;;8.20;99.90;;;;;;4942946;28;20194;-82
2022/04/13 05:52:46;;;;;;;13.00;8.33;;;8.20;99.90;;;;;;4939165;29;20182;-81
2022/04/13 05:55:12;;;;;;;14.33;8.17;;;8.30;99.90;;;;;;4945356;29;20201;-82
2022/04/13 05:57:38;;;;;;;10.87;8.30;;;8.40;99.90;;;;;;4956622;29;20179;-82
2022/04/13 06:00:06;;;;;;;10.27;7.93;;;8.40;99.90;;;;;;4955812;29;20522;-82
2022/04/13 06:02:33;;;;;;;11.97;8.00;;;8.50;99.90;;;;;;4946379;29;20185;-82
2022/04/13 06:04:59;;;;;;;12.93;8.47;;;8.50;99.90;;;;;;4945962;29;20177;-82
2022/04/13 06:07:25;;;;;;;12.10;8.97;;;8.60;99.90;;;;;;4948680;29;20177;-84
2022/04/13 06:09:50;;;;;;;16.30;9.37;;;8.70;99.90;;;;;;4948708;29;20185;-85
2022/04/13 06:12:23;;;;;;;11.23;8.07;;;8.80;99.90;;;;;;4944662;29;20182;-82
2022/04/13 06:14:49;;;;;;;11.60;8.43;;;8.90;99.90;;;;;;4953671;29;20535;-82
2022/04/13 06:17:16;;;;;;;15.67;9.70;;;9.00;99.90;;;;;;4956367;29;20191;-82
2022/04/13 06:19:42;;;;;;;17.07;9.50;;;9.00;99.90;;;;;;4957253;28;20177;-83
2022/04/13 06:22:08;;;;;;;13.90;9.87;;;9.10;99.90;;;;;;4956287;29;20204;-82
2022/04/13 06:24:33;;;;;;;14.40;10.30;;;9.20;99.90;;;;;;4955188;29;20181;-82
2022/04/13 06:26:59;;;;;;;18.07;10.50;;;9.30;99.90;;;;;;4957357;28;20185;-82
2022/04/13 06:29:25;;;;;;;14.90;9.87;;;9.30;99.90;;;;;;4957409;29;20608;-83
2022/04/13 06:31:50;;;;;;;16.47;9.83;;;9.40;99.90;;;;;;4957513;29;20235;-84
2022/04/13 06:34:16;;;;;;;16.67;10.43;;;9.50;99.90;;;;;;4956950;29;20280;-85
2022/04/13 06:36:42;;;;;;;13.73;10.00;;;9.60;99.90;;;;;;4957119;28;20169;-84
2022/04/13 06:39:08;;;;;;;16.93;10.43;;;9.70;99.90;;;;;;4957200;29;20651;-85
2022/04/13 06:41:34;;;;;;;14.53;9.40;;;9.80;99.90;;;;;;4956153;29;20232;-85
2022/04/13 06:43:59;;;;;;;15.57;10.40;;;9.90;99.90;;;;;;4942206;29;20197;-83
2022/04/13 06:46:25;;;;;;;15.50;9.93;;;10.00;99.90;;;;;;4936690;29;20225;-84
2022/04/13 06:48:51;;;;;;;17.02;10.20;;;10.10;99.90;;;;;;4937305;29;20229;-83
2022/04/13 06:51:17;;;;;;;17.77;10.47;;;10.20;99.90;;;;;;4937224;29;20174;-83
2022/04/13 06:53:43;;;;;;;17.17;10.52;;;10.40;99.90;;;;;;4935778;29;20193;-84
2022/04/13 06:56:09;;;;;;;16.70;9.70;;;10.40;99.90;;;;;;4935954;29;20567;-84
2022/04/13 06:58:34;;;;;;;13.35;9.68;;;10.60;99.90;;;;;;4937706;29;20174;-83
2022/04/13 07:01:00;;;;;;;15.30;9.63;;;10.70;99.90;;;;;;4937550;29;20313;-83
2022/04/13 07:03:26;;;;;;;20.67;11.17;;;10.70;99.90;;;;;;4935931;29;20667;-84
2022/04/13 07:05:52;;;;;;;15.80;11.23;;;10.80;99.90;;;;;;4945033;29;20232;-84
2022/04/13 07:08:18;;;;;;;17.50;11.00;;;10.80;99.90;;;;;;4955017;29;20216;-84
2022/04/13 07:10:44;;;;;;;15.57;9.65;;;10.90;99.90;;;;;;4956568;29;20211;-83
2022/04/13 07:13:11;;;;;;;13.30;10.00;;;11.10;99.90;;;;;;4956430;28;20181;-83
2022/04/13 07:15:36;;;;;;;17.00;10.43;;;11.20;99.90;;;;;;4954902;29;20213;-85
2022/04/13 07:18:02;;;;;;;17.70;10.60;;;11.50;99.90;;;;;;4955102;29;20187;-84
2022/04/13 07:20:28;;;;;;;12.77;9.55;;;11.70;99.90;;;;;;4952614;28;20195;-83
2022/04/13 07:22:54;;;;;;;15.25;9.75;;;11.90;99.90;;;;;;4935785;29;20727;-84
2022/04/13 07:25:21;;;;;;;15.23;10.02;;;12.00;99.90;;;;;;4936957;29;20193;-84
2022/04/13 07:27:48;;;;;;;17.45;10.07;;;12.20;99.90;;;;;;4937131;29;20190;-84
2022/04/13 07:30:14;;;;;;;17.38;10.65;;;12.30;99.90;;;;;;4936959;29;20177;-83
2022/04/13 07:32:43;;;;;;;16.45;9.75;;;12.40;99.90;;;;;;4937053;29;20217;-84
2022/04/13 07:35:09;;;;;;;16.40;10.25;;;12.40;99.90;;;;;;4939834;29;20268;-83
2022/04/13 07:37:35;;;;;;;17.10;10.48;;;12.50;99.90;;;;;;4955253;29;20177;-83
2022/04/13 07:40:01;;;;;;;16.95;10.05;;;12.60;99.90;;;;;;4955864;29;20205;-82
2022/04/13 07:42:27;;;;;;;13.93;9.93;;;12.60;99.90;;;;;;4956038;29;20173;-83
2022/04/13 07:44:54;;;;;;;14.95;9.90;;;12.60;99.90;;;;;;4954984;29;20281;-83
2022/04/13 07:47:21;;;;;;;17.08;10.43;;;12.70;99.90;;;;;;4954626;29;20192;-83
2022/04/13 07:49:48;;;;;;;16.90;10.05;;;12.70;99.90;;;;;;4954440;29;20337;-83
2022/04/13 07:52:15;;;;;;;15.82;9.93;;;12.70;99.90;;;;;;4953662;29;20316;-83
2022/04/13 07:54:41;;;;;;;13.50;9.93;;;12.70;99.90;;;;;;4954267;29;20477;-84
2022/04/13 07:57:07;;;;;;;12.68;9.57;;;12.70;99.90;;;;;;4953152;29;20652;-84
2022/04/13 07:59:33;;;;;;;17.50;10.18;;;12.80;99.90;;;;;;4954187;28;20179;-83
2022/04/13 08:01:58;;;;;;;13.50;9.00;;;12.80;99.90;;;;;;4954090;28;20581;-83
2022/04/13 08:04:24;;;;;;;13.95;9.95;;;12.90;99.90;;;;;;4958114;29;20184;-82
2022/04/13 08:06:50;;;;;;;12.80;8.60;;;12.90;99.90;;;;;;4957127;29;20554;-83
2022/04/13 08:09:16;;;;;;;13.70;9.30;;;13.10;99.90;;;;;;4959539;29;20181;-83
2022/04/13 08:11:41;;;;;;;17.52;9.75;;;13.20;99.90;;;;;;4957721;29;20434;-84
2022/04/13 08:14:07;;;;;;;15.65;9.80;;;13.30;99.90;;;;;;4958611;29;20655;-84
2022/04/13 08:16:33;;;;;;;16.98;9.40;;;13.40;99.90;;;;;;4958441;29;20184;-84
2022/04/13 08:18:59;;;;;;;15.52;9.13;;;13.60;99.90;;;;;;4958335;29;20181;-84
2022/04/13 08:21:25;;;;;;;12.77;8.30;;;13.70;99.90;;;;;;4957784;29;20185;-84
2022/04/13 08:23:51;;;;;;;12.40;8.73;;;13.90;99.90;;;;;;4958509;29;20173;-84
2022/04/13 08:26:16;;;;;;;14.98;9.20;;;14.00;99.90;;;;;;4958949;28;20173;-85
2022/04/13 08:28:42;;;;;;;11.93;8.90;;;14.20;99.90;;;;;;4959197;29;20184;-84
2022/04/13 08:31:09;;;;;;;12.70;8.68;;;14.30;99.90;;;;;;4957947;29;20195;-84
2022/04/13 08:33:36;;;;;;;14.52;9.00;;;14.30;99.90;;;;;;4957387;29;20559;-84
2022/04/13 08:36:02;;;;;;;13.75;8.82;;;14.50;99.90;;;;;;4959304;28;20209;-84
2022/04/13 08:38:28;;;;;;;11.13;7.88;;;14.60;99.90;;;;;;4959249;28;20229;-84
2022/04/13 08:40:59;;;;;;;13.20;8.80;;;14.80;99.90;;;;;;4959001;29;20695;-84
2022/04/13 08:43:56;;;;;;;14.43;8.30;;;14.80;99.90;;;;;;4957620;29;20206;-84
2022/04/13 08:46:26;;;;;;;14.13;8.45;;;15.00;99.90;;;;;;4957724;29;20174;-84
2022/04/13 08:48:57;;;;;;;12.60;8.55;;;15.10;99.90;;;;;;4957882;29;20231;-84
2022/04/13 08:51:26;;;;;;;12.93;8.52;;;15.20;99.90;;;;;;4957459;29;20212;-83
2022/04/13 08:54:26;;;;;;;15.02;8.68;;;15.40;99.90;;;;;;4957611;29;20643;-84
2022/04/13 08:56:55;;;;;;;12.43;8.25;;;15.60;99.50;;;;;;4946974;29;20567;-84
2022/04/13 08:59:52;;;;;;;11.60;7.90;;;15.80;99.90;;;;;;4957801;29;20232;-83
2022/04/13 09:02:33;;;;;;;10.85;7.68;;;15.80;99.90;;;;;;4958774;29;20563;-84
2022/04/13 09:05:01;;;;;;;11.13;8.13;;;15.90;99.70;;;;;;4958300;29;20181;-84
2022/04/13 09:07:32;;;;;;;13.88;8.00;;;16.00;99.70;;;;;;4959048;28;20196;-84
2022/04/13 09:10:01;;;;;;;11.98;7.53;;;16.00;99.90;;;;;;4958809;28;20605;-84
2022/04/13 09:12:33;;;;;;;12.27;8.13;;;16.00;99.90;;;;;;4957991;28;20193;-84
2022/04/13 09:15:03;;;;;;;13.80;7.70;;;16.20;99.90;;;;;;4957361;29;20600;-84
2022/04/13 09:17:29;;;;;;;12.38;7.47;;;16.30;99.90;;;;;;4957470;29;20180;-84
2022/04/13 09:19:59;;;;;;;16.70;7.75;;;16.40;99.90;;;;;;4957600;29;20526;-84
2022/04/13 09:22:26;;;;;;;12.48;7.03;;;16.40;99.60;;;;;;4957411;29;20263;-84
2022/04/13 09:24:52;;;;;;;11.38;6.57;;;16.40;99.40;;;;;;4957326;29;20188;-84
2022/04/13 09:27:20;;;;;;;9.20;6.72;;;16.50;99.80;;;;;;4957162;29;20200;-83
2022/04/13 09:29:47;;;;;;;8.98;6.93;;;16.60;99.90;;;;;;4958614;28;20177;-84
2022/04/13 09:32:14;;;;;;;10.07;6.50;;;16.70;99.40;;;;;;4957202;29;20324;-84
2022/04/13 09:34:40;;;;;;;12.15;7.05;;;16.70;99.20;;;;;;4958435;28;20514;-85
2022/04/13 09:37:07;;;;;;;11.70;6.90;;;16.60;98.80;;;;;;4957041;29;20165;-84
2022/04/13 09:39:33;;;;;;;14.60;6.85;;;16.60;98.60;;;;;;4958304;28;20177;-83
2022/04/13 09:42:05;;;;;;;12.82;6.80;;;16.80;98.90;;;;;;4956812;29;20227;-86
2022/04/13 09:44:32;;;;;;;13.13;6.90;;;16.90;98.10;;;;;;4958358;29;20177;-85
2022/04/13 09:47:09;;;;;;;8.98;7.00;;;16.90;97.90;;;;;;4958334;28;20162;-85
2022/04/13 09:49:35;;;;;;;9.75;6.88;;;17.00;99.60;;;;;;4956965;29;20207;-84
2022/04/13 09:52:00;;;;;;;13.15;7.00;;;17.30;99.40;;;;;;4956533;29;20244;-85
2022/04/13 09:54:27;;;;;;;12.50;6.72;;;17.40;98.70;;;;;;4958030;29;20204;-86
2022/04/13 09:56:53;;;;;;;12.52;6.95;;;17.40;97.50;;;;;;4956865;29;20205;-86
2022/04/13 09:59:31;;;;;;;10.90;6.28;;;17.50;96.70;;;;;;4956882;29;20212;-85
2022/04/13 10:01:58;;;;;;;11.63;6.68;;;17.80;97.00;;;;;;4958065;29;20628;-83
2022/04/13 10:04:30;;;;;;;9.98;6.88;;;17.90;97.20;;;;;;4958093;28;20192;-87
2022/04/13 10:07:17;;;;;;;10.98;6.85;;;18.00;97.50;;;;;;4957634;28;20232;-84
2022/04/13 10:09:43;;;;;;;12.25;7.70;;;18.10;97.50;;;;;;4956840;29;20176;-84
2022/04/13 10:12:09;;;;;;;9.43;6.55;;;18.30;96.00;;;;;;4957797;29;20169;-86
2022/04/13 10:14:35;;;;;;;15.10;6.93;;;18.20;97.20;;;;;;4957891;29;20666;-84
2022/04/13 10:17:09;;;;;;;11.55;6.93;;;18.20;96.60;;;;;;4956405;29;20185;-86
2022/04/13 10:19:35;;;;;;;8.18;6.13;;;18.40;95.40;;;;;;4956569;29;20185;-85
2022/04/13 10:22:01;;;;;;;18.73;6.70;;;18.70;94.10;;;;;;4957458;28;20244;-85
2022/04/13 10:24:34;;;;;;;11.52;6.60;;;18.90;94.30;;;;;;4956935;28;20213;-86
2022/04/13 10:27:11;;;;;;;8.30;5.53;;;19.00;92.10;;;;;;4957703;28;20249;-85
2022/04/13 10:29:39;;;;;;;11.35;5.75;;;19.10;92.70;;;;;;4956466;29;20203;-87
2022/04/13 10:32:16;;;;;;;9.48;6.30;;;19.20;91.10;;;;;;4957556;28;20204;-85
2022/04/13 10:34:43;;;;;;;10.65;5.57;;;19.30;91.60;;;;;;4957680;28;20207;-86
2022/04/13 10:37:13;;;;;;;12.77;6.15;;;19.40;90.30;;;;;;4957390;28;20212;-83
2022/04/13 10:39:41;;;;;;;8.88;6.03;;;19.40;90.40;;;;;;4957378;28;20627;-85
2022/04/13 10:42:11;;;;;;;9.60;5.95;;;19.40;90.50;;;;;;4957275;28;20233;-87
2022/04/13 10:44:48;;;;;;;15.15;6.28;;;19.60;91.30;;;;;;4957441;28;20172;-87
2022/04/13 10:47:18;;;;;;;11.88;6.75;;;19.60;93.20;;;;;;4957284;28;20214;-84
2022/04/13 10:49:56;;;;;;;10.10;6.95;;;19.70;91.90;;;;;;4955834;29;20229;-87
2022/04/13 10:52:28;;;;;;;12.00;6.90;;;19.80;93.70;;;;;;4955641;29;20188;-82
2022/04/13 10:55:00;;;;;;;9.95;7.05;;;19.70;94.10;;;;;;4956807;29;20201;-86
2022/04/13 10:57:34;;;;;;;9.25;6.97;;;19.50;94.20;;;;;;4957116;28;20619;-84
2022/04/13 11:00:03;;;;;;;11.18;6.70;;;19.50;93.90;;;;;;4956919;28;20169;-81
2022/04/13 11:02:38;;;;;;;11.45;7.35;;;19.70;96.10;;;;;;4956912;28;20239;-83
2022/04/13 11:05:04;;;;;;;9.20;6.78;;;19.80;95.40;;;;;;4956811;29;20560;-84
2022/04/13 11:07:31;;;;;;;14.38;7.43;;;20.00;94.00;;;;;;4955264;29;20178;-86
2022/04/13 11:09:57;;;;;;;10.35;6.68;;;20.20;93.10;;;;;;4956864;28;20281;-86
2022/04/13 11:12:27;;;;;;;10.90;7.25;;;20.30;94.10;;;;;;4956714;28;20177;-83
2022/04/13 11:14:55;;;;;;;11.50;7.20;;;20.50;95.60;;;;;;4955389;29;20213;-84
2022/04/13 11:17:21;;;;;;;13.93;7.18;;;20.50;92.60;;;;;;4955309;29;20173;-83
2022/04/13 11:19:48;;;;;;;11.30;7.25;;;20.60;92.00;;;;;;4956498;29;20682;-82
2022/04/13 11:22:16;;;;;;;15.10;7.82;;;20.60;91.50;;;;;;4956177;29;20176;-82
2022/04/13 11:24:54;;;;;;;14.45;7.45;;;20.70;91.90;;;;;;4955492;29;20185;-81
2022/04/13 11:27:20;;;;;;;12.95;7.43;;;20.70;91.60;;;;;;4955464;29;20173;-82
2022/04/13 11:30:07;;;;;;;11.50;7.55;;;20.80;92.50;;;;;;4956251;29;20256;-82
2022/04/13 11:32:35;;;;;;;14.73;7.32;;;20.80;91.00;;;;;;4955112;29;20263;-83
2022/04/13 11:35:02;;;;;;;14.10;6.63;;;20.90;93.40;;;;;;4956337;28;20647;-83
2022/04/13 11:37:33;;;;;;;11.68;7.40;;;21.00;91.90;;;;;;4955858;28;20228;-82
2022/04/13 11:40:03;;;;;;;15.88;7.53;;;21.10;91.80;;;;;;4954897;29;20232;-82
2022/04/13 11:42:48;;;;;;;11.10;7.13;;;21.10;90.20;;;;;;4956136;28;20158;-82
2022/04/13 11:45:15;;;;;;;12.95;7.40;;;21.10;91.60;;;;;;4955064;29;20229;-82
2022/04/13 11:47:53;;;;;;;15.50;7.93;;;21.10;91.50;;;;;;4956192;28;20507;-82
2022/04/13 11:50:20;;;;;;;15.00;7.85;;;21.20;91.00;;;;;;4956251;29;20173;-83
2022/04/13 11:53:06;;;;;;;14.75;7.60;;;21.30;90.80;;;;;;4954555;29;20181;-83
2022/04/13 11:55:42;;;;;;;12.38;7.80;;;21.40;88.60;;;;;;4956144;29;20169;-83
2022/04/13 11:58:07;;;;;;;13.35;7.55;;;21.40;90.80;;;;;;4956178;28;20192;-83
2022/04/13 12:00:40;;;;;;;14.23;7.55;;;21.60;91.90;;;;;;4956150;29;20263;-83
2022/04/13 12:03:09;;;;;;;13.80;7.60;;;21.60;91.50;;;;;;4955910;29;20181;-81
2022/04/13 12:05:37;;;;;;;10.50;7.30;;;21.80;90.60;;;;;;4955730;28;20216;-81
2022/04/13 12:08:13;;;;;;;14.32;7.78;;;21.90;90.40;;;;;;4954900;29;20608;-83
2022/04/13 12:10:43;;;;;;;14.93;8.40;;;22.00;90.30;;;;;;4956200;28;20169;-83
2022/04/13 12:13:09;;;;;;;13.10;8.27;;;22.00;90.10;;;;;;4954859;29;20621;-83
2022/04/13 12:15:50;;;;;;;14.52;7.90;;;22.10;89.50;;;;;;4954769;29;20192;-83
2022/04/13 12:18:17;;;;;;;14.80;7.68;;;22.20;89.60;;;;;;4954648;29;20256;-83
2022/04/13 12:20:42;;;;;;;14.68;8.00;;;22.20;86.20;;;;;;4955796;28;20186;-83
2022/04/13 12:23:15;;;;;;;12.32;7.18;;;22.10;86.20;;;;;;4954673;29;20516;-82
2022/04/13 12:25:49;;;;;;;15.38;7.43;;;22.20;90.50;;;;;;4954553;29;20217;-83
2022/04/13 12:28:15;;;;;;;15.68;8.10;;;22.20;86.60;;;;;;4955830;28;20196;-82
2022/04/13 12:30:41;;;;;;;13.48;8.10;;;22.30;84.80;;;;;;4955879;28;20228;-83
2022/04/13 12:33:23;;;;;;;10.10;6.60;;;22.30;84.40;;;;;;4955637;28;20496;-83
2022/04/13 12:35:53;;;;;;;14.25;8.07;;;22.40;87.40;;;;;;4955527;29;20185;-83
2022/04/13 12:38:25;;;;;;;12.63;7.43;;;22.50;88.60;;;;;;4955775;28;20169;-83
2022/04/13 12:41:15;;;;;;;11.77;7.30;;;22.50;88.70;;;;;;4955622;28;20245;-83
2022/04/13 12:43:54;;;;;;;14.15;7.63;;;22.50;90.10;;;;;;4954594;29;20197;-83